Time,TemperatureF,DewpointF,PressureIn,WindDirection,WindDirectionDegrees,WindSpeedMPH,WindSpeedGustMPH,Humidity,HourlyPrecipIn,Conditions,Clouds,dailyrainin,SoftwareType,DateUTC
2013-08-27 00:01:00,64.2,63.1,30.18,SSW,202,0.0,0.0,96,0.00,CLR,,0.00,WeatherDisplay:10.37,2013-08-27 04:01:00,
2013-08-27 00:06:00,64.0,62.6,30.18,SSW,202,0.0,0.0,95,0.00,CLR,,0.00,WeatherDisplay:10.37,2013-08-27 04:06:00,
2013-08-27 00:11:00,64.0,62.6,30.18,SSW,202,0.0,0.0,95,0.00,CLR,,0.00,WeatherDisplay:10.37,2013-08-27 04:11:00,
2013-08-27 00:16:00,63.9,62.7,30.18,SW,225,0.0,0.0,96,0.00,CLR,,0.00,WeatherDisplay:10.37,2013-08-27 04:16:00,
2013-08-27 00:21:00,63.9,62.7,30.18,SW,225,0.0,0.0,96,0.00,CLR,,0.00,WeatherDisplay:10.37,2013-08-27 04:21:00,
2013-08-27 00:26:00,63.9,62.7,30.18,SW,225,0.0,0.0,96,0.00,CLR,,0.00,WeatherDisplay:10.37,2013-08-27 04:26:00,
2013-08-27 00:31:00,63.9,62.7,30.18,SW,225,0.0,0.0,96,0.00,CLR,,0.00,WeatherDisplay:10.37,2013-08-27 04:31:00,
2013-08-27 00:36:00,63.7,62.5,30.18,SW,225,0.0,0.0,96,0.00,CLR,,0.00,WeatherDisplay:10.37,2013-08-27 04:36:00,
2013-08-27 00:41:00,63.7,62.5,30.18,SW,225,0.0,0.0,96,0.00,CLR,,0.00,WeatherDisplay:10.37,2013-08-27 04:41:00,
2013-08-27 00:46:00,63.7,62.5,30.18,SSE,158,0.0,0.0,96,0.00,CLR,,0.00,WeatherDisplay:10.37,2013-08-27 04:46:00,
2013-08-27 00:51:00,63.7,62.5,30.18,South,180,0.0,0.0,96,0.00,CLR,,0.00,WeatherDisplay:10.37,2013-08-27 04:51:00,
2013-08-27 00:56:00,63.7,62.8,30.18,SSE,158,0.0,0.0,97,0.00,CLR,,0.00,WeatherDisplay:10.37,2013-08-27 04:56:00,
2013-08-27 01:01:00,63.7,62.8,30.18,SSE,158,0.0,0.0,97,0.00,CLR,,0.00,WeatherDisplay:10.37,2013-08-27 05:01:00,
2013-08-27 01:06:00,63.5,62.3,30.18,SSW,202,0.0,0.0,96,0.00,CLR,,0.00,WeatherDisplay:10.37,2013-08-27 05:06:00,
2013-08-27 01:11:00,63.7,62.5,30.15,SW,225,0.0,0.0,96,0.00,CLR,,0.00,WeatherDisplay:10.37,2013-08-27 05:11:00,
2013-08-27 01:16:00,63.9,62.7,30.15,SW,225,0.0,0.0,96,0.00,CLR,,0.00,WeatherDisplay:10.37,2013-08-27 05:16:00,
2013-08-27 01:21:00,63.9,62.7,30.15,WSW,248,0.0,0.0,96,0.00,CLR,,0.00,WeatherDisplay:10.37,2013-08-27 05:21:00,
2013-08-27 01:26:00,63.7,62.5,30.15,WSW,248,0.0,0.0,96,0.00,CLR,,0.00,WeatherDisplay:10.37,2013-08-27 05:26:00,
2013-08-27 01:31:00,63.5,62.3,30.15,WSW,248,0.0,0.0,96,0.00,CLR,,0.00,WeatherDisplay:10.37,2013-08-27 05:31:00,
2013-08-27 01:36:00,63.5,62.3,30.15,WSW,248,0.0,0.0,96,0.00,CLR,,0.00,WeatherDisplay:10.37,2013-08-27 05:36:00,
2013-08-27 01:41:00,63.5,62.3,30.15,SSE,158,0.0,0.0,96,0.00,CLR,,0.00,WeatherDisplay:10.37,2013-08-27 05:41:00,
2013-08-27 01:46:00,63.3,62.2,30.15,WSW,248,0.0,2.2,96,0.00,CLR,,0.00,WeatherDisplay:10.37,2013-08-27 05:46:00,
2013-08-27 01:51:00,63.7,62.5,30.15,West,270,0.0,2.4,96,0.00,CLR,,0.00,WeatherDisplay:10.37,2013-08-27 05:51:00,
2013-08-27 01:56:00,64.2,62.8,30.15,WSW,248,0.0,1.2,95,0.00,CLR,,0.00,WeatherDisplay:10.37,2013-08-27 05:56:00,
2013-08-27 02:01:00,64.4,62.6,30.15,West,270,1.4,2.3,94,0.00,CLR,,0.00,WeatherDisplay:10.37,2013-08-27 06:01:00,
2013-08-27 02:06:00,64.2,62.8,30.15,SSE,158,0.0,0.0,95,0.00,CLR,,0.00,WeatherDisplay:10.37,2013-08-27 06:06:00,
2013-08-27 02:11:00,64.6,62.8,30.15,SSW,202,2.2,3.5,94,0.00,CLR,,0.00,WeatherDisplay:10.37,2013-08-27 06:11:00,
2013-08-27 02:16:00,64.9,62.9,30.15,West,270,0.0,2.0,93,0.00,CLR,,0.00,WeatherDisplay:10.37,2013-08-27 06:16:00,
2013-08-27 02:21:00,65.5,63.1,30.15,West,270,1.6,2.3,92,0.00,CLR,,0.00,WeatherDisplay:10.37,2013-08-27 06:21:00,
2013-08-27 02:26:00,65.7,63.0,30.15,NW,315,0.9,2.6,91,0.00,CLR,,0.00,WeatherDisplay:10.37,2013-08-27 06:26:00,
2013-08-27 02:31:00,65.7,63.0,30.15,West,270,0.0,2.0,91,0.00,CLR,,0.00,WeatherDisplay:10.37,2013-08-27 06:31:00,
2013-08-27 02:36:00,65.7,62.6,30.15,WSW,248,0.0,1.2,90,0.00,CLR,,0.00,WeatherDisplay:10.37,2013-08-27 06:36:00,
2013-08-27 02:41:00,65.7,62.6,30.15,West,270,1.2,1.2,90,0.00,CLR,,0.00,WeatherDisplay:10.37,2013-08-27 06:41:00,
2013-08-27 02:46:00,65.7,62.6,30.15,WNW,292,1.4,4.6,90,0.00,CLR,,0.00,WeatherDisplay:10.37,2013-08-27 06:46:00,
2013-08-27 02:52:00,65.7,62.6,30.15,West,270,1.4,2.3,90,0.00,CLR,,0.00,WeatherDisplay:10.37,2013-08-27 06:52:00,
2013-08-27 02:57:00,65.7,62.6,30.15,West,270,0.0,0.0,90,0.00,CLR,,0.00,WeatherDisplay:10.37,2013-08-27 06:57:00,
2013-08-27 03:02:00,65.1,62.1,30.15,West,270,0.0,2.2,90,0.00,CLR,,0.00,WeatherDisplay:10.37,2013-08-27 07:02:00,
2013-08-27 03:07:00,65.1,62.1,30.15,South,180,0.0,1.2,90,0.00,CLR,,0.00,WeatherDisplay:10.37,2013-08-27 07:07:00,
2013-08-27 03:12:00,64.8,61.8,30.12,SSW,202,0.0,0.0,90,0.00,CLR,,0.00,WeatherDisplay:10.37,2013-08-27 07:12:00,
2013-08-27 03:17:00,64.6,61.9,30.12,West,270,0.0,0.0,91,0.00,CLR,,0.00,WeatherDisplay:10.37,2013-08-27 07:17:00,
2013-08-27 03:22:00,64.4,61.7,30.12,SSW,202,0.0,0.0,91,0.00,CLR,,0.00,WeatherDisplay:10.37,2013-08-27 07:22:00,
2013-08-27 03:27:00,64.2,61.8,30.15,WNW,292,0.0,0.0,92,0.00,CLR,,0.00,WeatherDisplay:10.37,2013-08-27 07:27:00,
2013-08-27 03:32:00,64.0,61.7,30.15,SW,225,0.0,0.0,92,0.00,CLR,,0.00,WeatherDisplay:10.37,2013-08-27 07:32:00,
2013-08-27 03:37:00,63.9,61.8,30.15,WSW,248,2.0,2.3,93,0.00,CLR,,0.00,WeatherDisplay:10.37,2013-08-27 07:37:00,
2013-08-27 03:42:00,64.0,62.0,30.15,West,270,0.0,0.0,93,0.00,CLR,,0.00,WeatherDisplay:10.37,2013-08-27 07:42:00,
2013-08-27 03:47:00,64.0,62.0,30.15,West,270,0.0,0.0,93,0.00,CLR,,0.00,WeatherDisplay:10.37,2013-08-27 07:47:00,
2013-08-27 03:52:00,64.2,62.5,30.15,West,270,1.4,1.4,94,0.00,CLR,,0.00,WeatherDisplay:10.37,2013-08-27 07:52:00,
2013-08-27 03:57:00,64.6,62.8,30.15,West,270,1.6,2.3,94,0.00,CLR,,0.00,WeatherDisplay:10.37,2013-08-27 07:57:00,
2013-08-27 04:02:00,64.6,62.8,30.15,WNW,292,0.0,2.3,94,0.00,CLR,,0.00,WeatherDisplay:10.37,2013-08-27 08:02:00,
2013-08-27 04:07:00,64.4,62.6,30.15,West,270,1.6,2.0,94,0.00,CLR,,0.00,WeatherDisplay:10.37,2013-08-27 08:07:00,
2013-08-27 04:12:00,64.8,63.3,30.12,West,270,2.0,2.3,95,0.00,CLR,,0.00,WeatherDisplay:10.37,2013-08-27 08:12:00,
2013-08-27 04:17:00,64.9,63.2,30.12,WSW,248,1.6,2.4,94,0.00,CLR,,0.00,WeatherDisplay:10.37,2013-08-27 08:17:00,
2013-08-27 04:22:00,64.9,63.5,30.12,WSW,248,2.0,4.6,95,0.00,CLR,,0.00,WeatherDisplay:10.37,2013-08-27 08:22:00,
2013-08-27 04:27:00,64.9,63.5,30.15,West,270,1.4,2.3,95,0.00,CLR,,0.00,WeatherDisplay:10.37,2013-08-27 08:27:00,
2013-08-27 04:32:00,64.9,63.5,30.15,WNW,292,1.2,2.3,95,0.00,CLR,,0.00,WeatherDisplay:10.37,2013-08-27 08:32:00,
2013-08-27 04:37:00,64.9,63.5,30.15,West,270,1.4,2.3,95,0.00,CLR,,0.00,WeatherDisplay:10.37,2013-08-27 08:37:00,
2013-08-27 04:42:00,64.9,63.5,30.15,SW,225,2.0,2.4,95,0.00,CLR,,0.00,WeatherDisplay:10.37,2013-08-27 08:42:00,
2013-08-27 04:47:00,64.9,63.8,30.15,West,270,1.6,2.3,96,0.00,CLR,,0.00,WeatherDisplay:10.37,2013-08-27 08:47:00,
2013-08-27 04:52:00,64.9,63.8,30.15,West,270,0.9,2.3,96,0.00,CLR,,0.00,WeatherDisplay:10.37,2013-08-27 08:52:00,
2013-08-27 04:57:00,64.9,63.8,30.15,West,270,1.2,1.6,96,0.00,CLR,,0.00,WeatherDisplay:10.37,2013-08-27 08:57:00,
2013-08-27 05:02:00,64.9,63.8,30.15,WNW,292,0.0,1.2,96,0.00,CLR,,0.00,WeatherDisplay:10.37,2013-08-27 09:02:00,
2013-08-27 05:07:00,64.8,63.6,30.15,WSW,248,2.2,2.4,96,0.00,CLR,,0.00,WeatherDisplay:10.37,2013-08-27 09:07:00,
2013-08-27 05:12:00,64.9,63.8,30.15,WNW,292,1.2,1.4,96,0.00,CLR,,0.00,WeatherDisplay:10.37,2013-08-27 09:12:00,
2013-08-27 05:17:00,64.9,63.8,30.15,West,270,1.6,2.3,96,0.00,CLR,,0.00,WeatherDisplay:10.37,2013-08-27 09:17:00,
2013-08-27 05:22:00,64.9,63.8,30.15,West,270,1.4,2.3,96,0.00,CLR,,0.00,WeatherDisplay:10.37,2013-08-27 09:22:00,
2013-08-27 05:27:00,64.8,63.6,30.12,West,270,1.6,2.3,96,0.00,CLR,,0.00,WeatherDisplay:10.37,2013-08-27 09:27:00,
2013-08-27 05:32:00,64.8,63.6,30.12,SW,225,1.4,2.3,96,0.00,CLR,,0.00,WeatherDisplay:10.37,2013-08-27 09:32:00,
2013-08-27 05:37:00,64.8,63.9,30.12,West,270,2.4,3.5,97,0.00,CLR,,0.00,WeatherDisplay:10.37,2013-08-27 09:37:00,
2013-08-27 05:42:00,64.8,63.9,30.12,West,270,0.0,1.2,97,0.00,CLR,,0.00,WeatherDisplay:10.37,2013-08-27 09:42:00,
2013-08-27 05:47:00,64.8,63.9,30.12,West,270,1.6,2.3,97,0.00,CLR,,0.00,WeatherDisplay:10.37,2013-08-27 09:47:00,
2013-08-27 05:52:00,64.8,63.9,30.12,West,270,0.0,1.2,97,0.00,CLR,,0.00,WeatherDisplay:10.37,2013-08-27 09:52:00,
2013-08-27 05:57:00,64.6,63.7,30.12,WSW,248,1.6,2.3,97,0.00,CLR,,0.00,WeatherDisplay:10.37,2013-08-27 09:57:00,
2013-08-27 06:02:00,64.6,63.7,30.12,WSW,248,1.4,3.5,97,0.00,CLR,,0.00,WeatherDisplay:10.37,2013-08-27 10:02:00,
2013-08-27 06:07:00,64.4,63.5,30.12,West,270,0.9,2.3,97,0.00,CLR,,0.00,WeatherDisplay:10.37,2013-08-27 10:07:00,
2013-08-27 06:12:00,64.4,63.5,30.12,West,270,0.0,0.0,97,0.00,CLR,,0.00,WeatherDisplay:10.37,2013-08-27 10:12:00,
2013-08-27 06:17:00,64.2,63.4,30.12,West,270,0.0,0.0,97,0.00,CLR,,0.00,WeatherDisplay:10.37,2013-08-27 10:17:00,
2013-08-27 06:22:00,64.0,63.2,30.12,West,270,0.9,1.2,97,0.00,CLR,,0.00,WeatherDisplay:10.37,2013-08-27 10:22:00,
2013-08-27 06:27:00,64.2,63.6,30.09,West,270,0.0,0.0,98,0.00,CLR,,0.00,WeatherDisplay:10.37,2013-08-27 10:27:00,
2013-08-27 06:32:00,64.0,63.5,30.09,West,270,0.0,0.0,98,0.00,CLR,,0.00,WeatherDisplay:10.37,2013-08-27 10:32:00,
2013-08-27 06:37:00,63.9,63.3,30.09,West,270,0.0,0.0,98,0.00,CLR,,0.00,WeatherDisplay:10.37,2013-08-27 10:37:00,
2013-08-27 06:42:00,63.9,63.3,30.12,West,270,0.0,0.0,98,0.00,CLR,,0.00,WeatherDisplay:10.37,2013-08-27 10:42:00,
2013-08-27 06:47:00,63.7,63.1,30.12,West,270,0.0,0.0,98,0.00,CLR,,0.00,WeatherDisplay:10.37,2013-08-27 10:47:00,
2013-08-27 06:52:00,63.5,62.9,30.12,West,270,0.0,0.0,98,0.00,CLR,,0.00,WeatherDisplay:10.37,2013-08-27 10:52:00,
2013-08-27 06:57:00,63.5,62.9,30.12,West,270,0.0,0.0,98,0.00,CLR,,0.00,WeatherDisplay:10.37,2013-08-27 10:57:00,
2013-08-27 07:02:00,63.7,63.1,30.12,West,270,0.0,0.0,98,0.00,CLR,,0.00,WeatherDisplay:10.37,2013-08-27 11:02:00,
2013-08-27 07:07:00,63.7,63.1,30.12,West,270,0.0,0.0,98,0.00,CLR,,0.00,WeatherDisplay:10.37,2013-08-27 11:07:00,
2013-08-27 07:12:00,63.9,63.3,30.12,West,270,0.0,0.0,98,0.00,CLR,,0.00,WeatherDisplay:10.37,2013-08-27 11:12:00,
2013-08-27 07:17:00,64.0,63.5,30.12,West,270,0.0,0.0,98,0.00,CLR,,0.00,WeatherDisplay:10.37,2013-08-27 11:17:00,
2013-08-27 07:22:00,64.2,63.6,30.12,West,270,0.0,0.0,98,0.00,CLR,,0.00,WeatherDisplay:10.37,2013-08-27 11:22:00,
2013-08-27 07:27:00,64.9,64.4,30.12,West,270,0.0,0.0,98,0.00,CLR,,0.00,WeatherDisplay:10.37,2013-08-27 11:27:00,
2013-08-27 07:32:00,65.5,64.9,30.12,West,270,1.6,2.3,98,0.00,CLR,,0.00,WeatherDisplay:10.37,2013-08-27 11:32:00,
2013-08-27 07:37:00,65.5,64.9,30.12,NW,315,0.0,0.0,98,0.00,CLR,,0.00,WeatherDisplay:10.37,2013-08-27 11:37:00,
2013-08-27 07:42:00,65.7,65.1,30.15,WNW,292,0.9,1.2,98,0.00,CLR,,0.00,WeatherDisplay:10.37,2013-08-27 11:42:00,
2013-08-27 07:47:00,65.8,65.3,30.15,West,270,0.0,0.0,98,0.00,CLR,,0.00,WeatherDisplay:10.37,2013-08-27 11:47:00,
2013-08-27 07:52:00,66.2,65.3,30.15,WNW,292,1.4,2.3,97,0.00,CLR,,0.00,WeatherDisplay:10.37,2013-08-27 11:52:00,
2013-08-27 07:57:00,66.9,66.0,30.12,SW,225,0.0,1.2,97,0.00,CLR,,0.00,WeatherDisplay:10.37,2013-08-27 11:57:00,
2013-08-27 08:02:00,67.6,66.8,30.12,SW,225,0.0,2.0,97,0.00,CLR,,0.00,WeatherDisplay:10.37,2013-08-27 12:02:00,
2013-08-27 08:07:00,68.4,67.2,30.12,WNW,292,1.6,2.3,96,0.00,CLR,,0.00,WeatherDisplay:10.37,2013-08-27 12:07:00,
2013-08-27 08:12:00,70.0,68.5,30.12,West,270,0.0,1.2,95,0.00,CLR,,0.00,WeatherDisplay:10.37,2013-08-27 12:12:00,
2013-08-27 08:17:00,71.1,69.2,30.12,NW,315,0.0,1.2,94,0.00,CLR,,0.00,WeatherDisplay:10.37,2013-08-27 12:17:00,
2013-08-27 08:22:00,71.4,69.3,30.12,West,270,0.0,0.0,93,0.00,CLR,,0.00,WeatherDisplay:10.37,2013-08-27 12:22:00,
2013-08-27 08:27:00,72.0,69.2,30.12,WNW,292,0.9,2.3,91,0.00,CLR,,0.00,WeatherDisplay:10.37,2013-08-27 12:27:00,
2013-08-27 08:32:00,72.7,69.9,30.12,NW,315,0.0,0.0,91,0.00,CLR,,0.00,WeatherDisplay:10.37,2013-08-27 12:32:00,
2013-08-27 08:37:00,73.2,69.8,30.12,SW,225,2.2,2.6,89,0.00,CLR,,0.00,WeatherDisplay:10.37,2013-08-27 12:37:00,
2013-08-27 08:42:00,73.6,69.5,30.12,SW,225,2.6,4.6,87,0.00,CLR,,0.00,WeatherDisplay:10.37,2013-08-27 12:42:00,
2013-08-27 08:47:00,73.9,69.1,30.12,SW,225,2.2,3.5,85,0.00,CLR,,0.00,WeatherDisplay:10.37,2013-08-27 12:47:00,
2013-08-27 08:52:00,74.8,70.0,30.12,West,270,1.2,2.3,85,0.00,CLR,,0.00,WeatherDisplay:10.37,2013-08-27 12:52:00,
2013-08-27 08:57:00,75.9,70.0,30.09,WSW,248,2.0,2.3,82,0.00,CLR,,0.00,WeatherDisplay:10.37,2013-08-27 12:57:00,
2013-08-27 09:02:00,76.1,69.5,30.09,SW,225,2.2,3.5,80,0.00,CLR,,0.00,WeatherDisplay:10.37,2013-08-27 13:02:00,
2013-08-27 09:07:00,76.5,69.5,30.09,WSW,248,0.9,3.5,79,0.00,CLR,,0.00,WeatherDisplay:10.37,2013-08-27 13:07:00,
2013-08-27 09:12:00,77.0,70.0,30.09,West,270,1.4,2.3,79,0.00,CLR,,0.00,WeatherDisplay:10.37,2013-08-27 13:12:00,
2013-08-27 09:17:00,78.1,71.0,30.09,NW,315,0.0,0.0,79,0.00,CLR,,0.00,WeatherDisplay:10.37,2013-08-27 13:17:00,
2013-08-27 09:22:00,79.0,71.2,30.09,SSW,202,0.0,1.6,77,0.00,CLR,,0.00,WeatherDisplay:10.37,2013-08-27 13:22:00,
2013-08-27 09:27:00,79.2,70.5,30.12,SW,225,1.6,2.3,75,0.00,CLR,,0.00,WeatherDisplay:10.37,2013-08-27 13:27:00,
2013-08-27 09:32:00,79.9,70.8,30.12,NW,315,0.0,1.2,74,0.00,CLR,,0.00,WeatherDisplay:10.37,2013-08-27 13:32:00,
2013-08-27 09:37:00,80.4,70.2,30.12,SW,225,2.2,2.3,71,0.00,CLR,,0.00,WeatherDisplay:10.37,2013-08-27 13:37:00,
2013-08-27 09:42:00,80.8,70.1,30.12,West,270,2.9,3.5,70,0.00,CLR,,0.00,WeatherDisplay:10.37,2013-08-27 13:42:00,
2013-08-27 09:47:00,81.7,71.8,30.12,NW,315,0.0,1.2,72,0.00,CLR,,0.00,WeatherDisplay:10.37,2013-08-27 13:47:00,
2013-08-27 09:52:00,82.8,71.5,30.12,NNW,338,0.0,0.0,69,0.00,CLR,,0.00,WeatherDisplay:10.37,2013-08-27 13:52:00,
2013-08-27 09:57:00,82.8,71.5,30.12,West,270,1.6,3.5,69,0.00,CLR,,0.00,WeatherDisplay:10.37,2013-08-27 13:57:00,
2013-08-27 10:02:00,82.8,71.5,30.12,WNW,292,0.0,2.0,69,0.00,CLR,,0.00,WeatherDisplay:10.37,2013-08-27 14:02:00,
2013-08-27 10:07:00,82.8,71.1,30.12,West,270,0.0,0.0,68,0.00,CLR,,0.00,WeatherDisplay:10.37,2013-08-27 14:07:00,
2013-08-27 10:12:00,82.9,71.3,30.12,WNW,292,0.9,1.2,68,0.00,CLR,,0.00,WeatherDisplay:10.37,2013-08-27 14:12:00,
2013-08-27 10:17:00,82.6,70.5,30.12,WNW,292,0.9,1.2,67,0.00,CLR,,0.00,WeatherDisplay:10.37,2013-08-27 14:17:00,
2013-08-27 10:22:00,82.6,70.5,30.12,West,270,1.6,2.4,67,0.00,CLR,,0.00,WeatherDisplay:10.37,2013-08-27 14:22:00,
2013-08-27 10:27:00,83.1,71.0,30.15,WNW,292,0.0,1.2,67,0.00,CLR,,0.00,WeatherDisplay:10.37,2013-08-27 14:27:00,
2013-08-27 10:32:00,84.0,71.9,30.15,WNW,292,0.0,0.0,67,0.00,CLR,,0.00,WeatherDisplay:10.37,2013-08-27 14:32:00,
2013-08-27 10:37:00,84.9,72.3,30.15,West,270,1.6,2.3,66,0.00,CLR,,0.00,WeatherDisplay:10.37,2013-08-27 14:37:00,
2013-08-27 10:42:00,86.2,73.0,30.12,SW,225,1.2,4.0,65,0.00,CLR,,0.00,WeatherDisplay:10.37,2013-08-27 14:42:00,
2013-08-27 10:47:00,85.6,70.6,30.12,SW,225,2.0,4.6,61,0.00,CLR,,0.00,WeatherDisplay:10.37,2013-08-27 14:47:00,
2013-08-27 10:52:00,87.1,73.0,30.12,WNW,292,1.4,2.4,63,0.00,CLR,,0.00,WeatherDisplay:10.37,2013-08-27 14:52:00,
2013-08-27 10:57:00,87.8,72.7,30.12,NNW,338,1.2,1.2,61,0.00,CLR,,0.00,WeatherDisplay:10.37,2013-08-27 14:57:00,
2013-08-27 11:02:00,88.2,73.0,30.12,North,0,0.9,1.4,61,0.00,CLR,,0.00,WeatherDisplay:10.37,2013-08-27 15:02:00,
2013-08-27 11:07:00,88.9,72.7,30.12,WNW,292,1.6,2.3,59,0.00,CLR,,0.00,WeatherDisplay:10.37,2013-08-27 15:07:00,
2013-08-27 11:12:00,89.1,72.4,30.12,SW,225,0.0,2.9,58,0.00,CLR,,0.00,WeatherDisplay:10.37,2013-08-27 15:12:00,
2013-08-27 11:17:00,89.4,72.2,30.12,NNW,338,0.9,1.6,57,0.00,CLR,,0.00,WeatherDisplay:10.37,2013-08-27 15:17:00,
2013-08-27 11:22:00,90.5,72.7,30.12,West,270,1.2,1.2,56,0.00,CLR,,0.00,WeatherDisplay:10.37,2013-08-27 15:22:00,
2013-08-27 11:27:00,90.7,72.8,30.09,East,90,1.2,2.3,56,0.00,CLR,,0.00,WeatherDisplay:10.37,2013-08-27 15:27:00,
2013-08-27 11:32:00,91.4,71.9,30.09,NW,315,1.4,3.5,53,0.00,CLR,,0.00,WeatherDisplay:10.37,2013-08-27 15:32:00,
2013-08-27 11:37:00,90.7,70.6,30.09,NW,315,2.0,5.8,52,0.00,CLR,,0.00,WeatherDisplay:10.37,2013-08-27 15:37:00,
2013-08-27 11:42:00,91.8,71.6,30.09,SW,225,0.0,2.4,52,0.00,CLR,,0.00,WeatherDisplay:10.37,2013-08-27 15:42:00,
2013-08-27 11:47:00,92.3,73.2,30.09,WNW,292,0.0,1.2,54,0.00,CLR,,0.00,WeatherDisplay:10.37,2013-08-27 15:47:00,
2013-08-27 11:52:00,92.3,72.1,30.09,NW,315,0.9,2.9,52,0.00,CLR,,0.00,WeatherDisplay:10.37,2013-08-27 15:52:00,
2013-08-27 11:57:00,91.6,70.3,30.12,WNW,292,1.6,2.3,50,0.00,CLR,,0.00,WeatherDisplay:10.37,2013-08-27 15:57:00,
2013-08-27 12:02:00,92.1,71.4,30.12,NW,315,1.2,2.3,51,0.00,CLR,,0.00,WeatherDisplay:10.37,2013-08-27 16:02:00,
2013-08-27 12:07:00,91.9,70.6,30.12,NE,45,0.9,1.2,50,0.00,CLR,,0.00,WeatherDisplay:10.37,2013-08-27 16:07:00,
2013-08-27 12:12:00,92.5,69.9,30.09,NE,45,2.2,3.5,48,0.00,CLR,,0.00,WeatherDisplay:10.37,2013-08-27 16:12:00,
2013-08-27 12:17:00,91.9,69.4,30.09,East,90,2.2,3.5,48,0.00,CLR,,0.00,WeatherDisplay:10.37,2013-08-27 16:17:00,
2013-08-27 12:22:00,93.0,72.2,30.09,NW,315,0.0,2.0,51,0.00,CLR,,0.00,WeatherDisplay:10.37,2013-08-27 16:22:00,
2013-08-27 12:27:00,93.4,70.8,30.09,NW,315,1.6,2.3,48,0.00,CLR,,0.00,WeatherDisplay:10.37,2013-08-27 16:27:00,
2013-08-27 12:32:00,93.9,71.2,30.09,North,0,1.4,2.3,48,0.00,CLR,,0.00,WeatherDisplay:10.37,2013-08-27 16:32:00,
2013-08-27 12:37:00,94.5,71.7,30.09,NW,315,0.9,2.3,48,0.00,CLR,,0.00,WeatherDisplay:10.37,2013-08-27 16:37:00,
2013-08-27 12:42:00,94.3,71.0,30.09,NW,315,1.4,2.0,47,0.00,CLR,,0.00,WeatherDisplay:10.37,2013-08-27 16:42:00,
2013-08-27 12:47:00,93.6,70.3,30.09,NE,45,1.2,1.2,47,0.00,CLR,,0.00,WeatherDisplay:10.37,2013-08-27 16:47:00,
2013-08-27 12:52:00,93.4,70.8,30.09,North,0,0.0,2.4,48,0.00,CLR,,0.00,WeatherDisplay:10.37,2013-08-27 16:52:00,
2013-08-27 12:57:00,92.5,70.5,30.09,NNE,22,0.9,1.2,49,0.00,CLR,,0.00,WeatherDisplay:10.37,2013-08-27 16:57:00,
2013-08-27 13:02:00,93.6,71.5,30.09,NW,315,1.2,2.3,49,0.00,CLR,,0.00,WeatherDisplay:10.37,2013-08-27 17:02:00,
2013-08-27 13:07:00,93.0,71.6,30.09,ENE,68,1.2,4.7,50,0.00,CLR,,0.00,WeatherDisplay:10.37,2013-08-27 17:07:00,
2013-08-27 13:12:00,93.2,72.4,30.06,NW,315,0.0,1.2,51,0.00,CLR,,0.00,WeatherDisplay:10.37,2013-08-27 17:12:00,
2013-08-27 13:17:00,92.7,71.3,30.06,ENE,68,1.4,2.4,50,0.00,CLR,,0.00,WeatherDisplay:10.37,2013-08-27 17:17:00,
2013-08-27 13:22:00,92.3,71.0,30.06,SW,225,1.4,3.5,50,0.00,CLR,,0.00,WeatherDisplay:10.37,2013-08-27 17:22:00,
2013-08-27 13:27:00,92.1,72.0,30.09,South,180,2.0,3.5,52,0.00,CLR,,0.00,WeatherDisplay:10.37,2013-08-27 17:27:00,
2013-08-27 13:32:00,94.3,73.4,30.09,East,90,1.6,2.3,51,0.00,CLR,,0.00,WeatherDisplay:10.37,2013-08-27 17:32:00,
2013-08-27 13:37:00,92.7,70.7,30.09,SSW,202,0.0,3.5,49,0.00,CLR,,0.00,WeatherDisplay:10.37,2013-08-27 17:37:00,
2013-08-27 13:42:00,92.5,70.5,30.09,NW,315,3.6,4.6,49,0.00,CLR,,0.00,WeatherDisplay:10.37,2013-08-27 17:42:00,
2013-08-27 13:48:00,94.3,72.8,30.09,NE,45,0.9,2.0,50,0.00,CLR,,0.00,WeatherDisplay:10.37,2013-08-27 17:48:00,
2013-08-27 13:53:00,93.9,72.5,30.09,NNW,338,2.0,3.5,50,0.00,CLR,,0.00,WeatherDisplay:10.37,2013-08-27 17:53:00,
2013-08-27 13:58:00,94.6,73.1,30.09,NE,45,1.2,3.5,50,0.00,CLR,,0.00,WeatherDisplay:10.37,2013-08-27 17:58:00,
2013-08-27 14:03:00,94.3,72.8,30.09,West,270,1.4,2.3,50,0.00,CLR,,0.00,WeatherDisplay:10.37,2013-08-27 18:03:00,
2013-08-27 14:08:00,93.9,70.6,30.09,East,90,1.2,2.6,47,0.00,CLR,,0.00,WeatherDisplay:10.37,2013-08-27 18:08:00,
2013-08-27 14:13:00,94.6,71.9,30.09,NNE,22,0.9,2.3,48,0.00,CLR,,0.00,WeatherDisplay:10.37,2013-08-27 18:13:00,
2013-08-27 14:18:00,94.6,71.3,30.09,NW,315,2.2,4.6,47,0.00,CLR,,0.00,WeatherDisplay:10.37,2013-08-27 18:18:00,
2013-08-27 14:23:00,94.8,72.1,30.09,NW,315,0.9,1.2,48,0.00,CLR,,0.00,WeatherDisplay:10.37,2013-08-27 18:23:00,
2013-08-27 14:28:00,94.8,71.4,30.09,ENE,68,1.6,3.5,47,0.00,CLR,,0.00,WeatherDisplay:10.37,2013-08-27 18:28:00,
2013-08-27 14:33:00,94.5,69.8,30.09,WNW,292,1.4,2.3,45,0.00,CLR,,0.00,WeatherDisplay:10.37,2013-08-27 18:33:00,
2013-08-27 14:38:00,95.4,70.7,30.09,NE,45,1.2,2.3,45,0.00,CLR,,0.00,WeatherDisplay:10.37,2013-08-27 18:38:00,
2013-08-27 14:43:00,97.0,71.5,30.09,SW,225,0.0,0.9,44,0.00,CLR,,0.00,WeatherDisplay:10.37,2013-08-27 18:43:00,
2013-08-27 14:48:00,96.8,70.6,30.09,NW,315,1.4,2.3,43,0.00,CLR,,0.00,WeatherDisplay:10.37,2013-08-27 18:48:00,
2013-08-27 14:53:00,94.6,69.3,30.09,NW,315,0.9,1.2,44,0.00,CLR,,0.00,WeatherDisplay:10.37,2013-08-27 18:53:00,
2013-08-27 14:58:00,94.6,68.7,30.09,SW,225,1.6,3.5,43,0.00,CLR,,0.00,WeatherDisplay:10.37,2013-08-27 18:58:00,
2013-08-27 15:03:00,95.5,69.5,30.09,East,90,2.2,3.5,43,0.00,CLR,,0.00,WeatherDisplay:10.37,2013-08-27 19:03:00,
2013-08-27 15:08:00,95.4,68.6,30.09,NNE,22,1.4,2.3,42,0.00,CLR,,0.00,WeatherDisplay:10.37,2013-08-27 19:08:00,
2013-08-27 15:13:00,95.0,69.0,30.06,NNW,338,1.2,2.2,43,0.00,CLR,,0.00,WeatherDisplay:10.37,2013-08-27 19:13:00,
2013-08-27 15:18:00,94.3,68.3,30.06,East,90,0.0,1.2,43,0.00,CLR,,0.00,WeatherDisplay:10.37,2013-08-27 19:18:00,
2013-08-27 15:23:00,94.8,68.8,30.06,ESE,112,1.2,1.2,43,0.00,CLR,,0.00,WeatherDisplay:10.37,2013-08-27 19:23:00,
2013-08-27 15:28:00,94.6,68.0,30.06,North,0,0.9,2.3,42,0.00,CLR,,0.00,WeatherDisplay:10.37,2013-08-27 19:28:00,
2013-08-27 15:33:00,93.4,68.2,30.06,NE,45,0.9,2.3,44,0.00,CLR,,0.00,WeatherDisplay:10.37,2013-08-27 19:33:00,
2013-08-27 15:38:00,92.7,67.6,30.06,NNE,22,0.0,1.2,44,0.00,CLR,,0.00,WeatherDisplay:10.37,2013-08-27 19:38:00,
2013-08-27 15:43:00,92.5,68.0,30.06,NW,315,1.2,1.2,45,0.00,CLR,,0.00,WeatherDisplay:10.37,2013-08-27 19:43:00,
2013-08-27 15:48:00,92.8,70.3,30.06,North,0,1.2,2.3,48,0.00,CLR,,0.00,WeatherDisplay:10.37,2013-08-27 19:48:00,
2013-08-27 15:53:00,93.2,71.8,30.06,NW,315,0.0,1.2,50,0.00,CLR,,0.00,WeatherDisplay:10.37,2013-08-27 19:53:00,
2013-08-27 15:58:00,93.6,71.5,30.03,NNW,338,0.0,0.0,49,0.00,CLR,,0.00,WeatherDisplay:10.37,2013-08-27 19:58:00,
2013-08-27 16:03:00,92.8,71.5,30.03,NW,315,0.0,1.2,50,0.00,CLR,,0.00,WeatherDisplay:10.37,2013-08-27 20:03:00,
2013-08-27 16:08:00,92.7,69.5,30.03,NNW,338,0.0,0.0,47,0.00,CLR,,0.00,WeatherDisplay:10.37,2013-08-27 20:08:00,
2013-08-27 16:13:00,92.5,68.0,30.03,WNW,292,0.0,1.2,45,0.00,CLR,,0.00,WeatherDisplay:10.37,2013-08-27 20:13:00,
2013-08-27 16:18:00,91.9,68.2,30.03,South,180,1.4,2.3,46,0.00,CLR,,0.00,WeatherDisplay:10.37,2013-08-27 20:18:00,
2013-08-27 16:23:00,92.3,69.2,30.03,North,0,0.0,0.0,47,0.00,CLR,,0.00,WeatherDisplay:10.37,2013-08-27 20:23:00,
2013-08-27 16:28:00,92.5,69.9,30.03,NW,315,0.0,0.9,48,0.00,CLR,,0.00,WeatherDisplay:10.37,2013-08-27 20:28:00,
2013-08-27 16:33:00,91.9,70.6,30.03,North,0,0.0,1.4,50,0.00,CLR,,0.00,WeatherDisplay:10.37,2013-08-27 20:33:00,
2013-08-27 16:38:00,91.8,71.6,30.03,NNW,338,0.0,1.2,52,0.00,CLR,,0.00,WeatherDisplay:10.37,2013-08-27 20:38:00,
2013-08-27 16:43:00,92.5,71.7,30.06,NNW,338,0.0,0.0,51,0.00,CLR,,0.00,WeatherDisplay:10.37,2013-08-27 20:43:00,
2013-08-27 16:48:00,91.4,70.7,30.06,NNE,22,0.0,0.0,51,0.00,CLR,,0.00,WeatherDisplay:10.37,2013-08-27 20:48:00,
2013-08-27 16:53:00,90.3,72.0,30.06,NNE,22,0.0,1.2,55,0.00,CLR,,0.00,WeatherDisplay:10.37,2013-08-27 20:53:00,
2013-08-27 16:58:00,90.0,71.6,30.03,NNE,22,0.0,0.0,55,0.00,CLR,,0.00,WeatherDisplay:10.37,2013-08-27 20:58:00,
2013-08-27 17:03:00,89.2,71.0,30.03,NW,315,0.0,0.0,55,0.00,CLR,,0.00,WeatherDisplay:10.37,2013-08-27 21:03:00,
2013-08-27 17:08:00,88.5,70.3,30.03,WSW,248,0.0,1.2,55,0.00,CLR,,0.00,WeatherDisplay:10.37,2013-08-27 21:08:00,
2013-08-27 17:15:00,88.2,70.5,30.03,WSW,248,0.0,0.0,56,0.00,CLR,CLR,0.00,WeatherDisplay:10.37,2013-08-27 21:15:00,
2013-08-27 17:27:00,87.3,74.1,30.06,WSW,248,0.0,0.0,65,0.00,CLR,,0.00,WeatherDisplay:10.37,2013-08-27 21:27:00,
2013-08-27 17:35:00,87.3,73.6,30.06,WSW,248,0.0,0.0,64,0.00,CLR,CLR,0.00,WeatherDisplay:10.37,2013-08-27 21:35:00,
2013-08-27 17:40:00,87.3,74.1,30.03,WSW,248,0.0,0.0,65,0.00,CLR,,0.00,WeatherDisplay:10.37,2013-08-27 21:40:00,
2013-08-27 17:47:00,87.8,73.6,30.03,WSW,248,0.0,0.0,63,0.00,CLR,,0.00,WeatherDisplay:10.37,2013-08-27 21:47:00,
2013-08-27 17:52:00,88.0,73.8,30.03,WSW,248,0.0,0.0,63,0.00,CLR,,0.00,WeatherDisplay:10.37,2013-08-27 21:52:00,
2013-08-27 17:57:00,87.6,73.5,30.06,WSW,248,0.0,0.0,63,0.00,CLR,,0.00,WeatherDisplay:10.37,2013-08-27 21:57:00,
2013-08-27 18:02:00,86.9,73.3,30.06,WSW,248,0.0,0.0,64,0.00,CLR,,0.00,WeatherDisplay:10.37,2013-08-27 22:02:00,
2013-08-27 18:07:00,86.5,73.4,30.06,WSW,248,0.0,0.0,65,0.00,CLR,,0.00,WeatherDisplay:10.37,2013-08-27 22:07:00,
2013-08-27 18:12:00,86.0,73.3,30.03,WSW,248,0.0,0.0,66,0.00,CLR,,0.00,WeatherDisplay:10.37,2013-08-27 22:12:00,
2013-08-27 18:17:00,85.3,73.1,30.03,WSW,248,0.0,0.0,67,0.00,CLR,,0.00,WeatherDisplay:10.37,2013-08-27 22:17:00,
2013-08-27 18:22:00,84.7,73.4,30.03,WSW,248,0.0,0.0,69,0.00,CLR,,0.00,WeatherDisplay:10.37,2013-08-27 22:22:00,
2013-08-27 18:27:00,84.2,73.3,30.06,WSW,248,0.0,0.0,70,0.00,CLR,,0.00,WeatherDisplay:10.37,2013-08-27 22:27:00,
2013-08-27 18:32:00,83.8,74.7,30.06,WSW,248,0.0,0.0,74,0.00,CLR,,0.00,WeatherDisplay:10.37,2013-08-27 22:32:00,
2013-08-27 18:37:00,83.5,74.7,30.06,WSW,248,0.0,0.0,75,0.00,CLR,,0.00,WeatherDisplay:10.37,2013-08-27 22:37:00,
2013-08-27 18:42:00,83.3,74.5,30.03,WSW,248,0.0,0.0,75,0.00,CLR,,0.00,WeatherDisplay:10.37,2013-08-27 22:42:00,
2013-08-27 18:47:00,83.1,75.2,30.03,WSW,248,0.0,0.0,77,0.00,CLR,,0.00,WeatherDisplay:10.37,2013-08-27 22:47:00,
2013-08-27 18:52:00,82.8,74.8,30.03,WSW,248,0.0,0.0,77,0.00,CLR,,0.00,WeatherDisplay:10.37,2013-08-27 22:52:00,
2013-08-27 18:57:00,82.6,75.0,30.06,WSW,248,0.0,0.0,78,0.00,CLR,,0.00,WeatherDisplay:10.37,2013-08-27 22:57:00,
2013-08-27 19:02:00,82.2,74.7,30.06,SW,225,0.0,0.0,78,0.00,CLR,,0.00,WeatherDisplay:10.37,2013-08-27 23:02:00,
2013-08-27 19:07:00,81.9,74.3,30.06,SW,225,0.0,0.0,78,0.00,CLR,,0.00,WeatherDisplay:10.37,2013-08-27 23:07:00,
2013-08-27 19:12:00,81.5,74.0,30.03,SW,225,0.0,0.0,78,0.00,CLR,,0.00,WeatherDisplay:10.37,2013-08-27 23:12:00,
2013-08-27 19:17:00,80.8,73.7,30.03,SW,225,0.0,0.0,79,0.00,CLR,,0.00,WeatherDisplay:10.37,2013-08-27 23:17:00,
2013-08-27 19:22:00,80.4,74.4,30.03,SW,225,0.0,0.0,82,0.00,CLR,,0.00,WeatherDisplay:10.37,2013-08-27 23:22:00,
2013-08-27 19:27:00,80.1,74.1,30.03,SW,225,0.0,0.0,82,0.00,CLR,,0.00,WeatherDisplay:10.37,2013-08-27 23:27:00,
2013-08-27 19:32:00,79.7,74.8,30.03,SSW,202,0.0,0.0,85,0.00,CLR,,0.00,WeatherDisplay:10.37,2013-08-27 23:32:00,
2013-08-27 19:37:00,79.5,74.6,30.03,SW,225,0.0,0.0,85,0.00,CLR,,0.00,WeatherDisplay:10.37,2013-08-27 23:37:00,
2013-08-27 19:42:00,79.3,74.4,30.03,West,270,0.0,0.0,85,0.00,CLR,,0.00,WeatherDisplay:10.37,2013-08-27 23:42:00,
2013-08-27 19:47:00,79.0,74.8,30.03,West,270,0.0,0.0,87,0.00,CLR,,0.00,WeatherDisplay:10.37,2013-08-27 23:47:00,
2013-08-27 19:52:00,78.3,74.4,30.03,West,270,0.0,0.0,88,0.00,CLR,,0.00,WeatherDisplay:10.37,2013-08-27 23:52:00,
2013-08-27 19:57:00,77.9,74.4,30.03,West,270,0.0,0.0,89,0.00,CLR,,0.00,WeatherDisplay:10.37,2013-08-27 23:57:00,
2013-08-27 20:02:00,77.5,74.0,30.03,West,270,0.0,0.0,89,0.00,CLR,,0.00,WeatherDisplay:10.37,2013-08-28 00:02:00,
2013-08-27 20:07:00,77.2,73.7,30.03,West,270,0.0,0.0,89,0.00,CLR,,0.00,WeatherDisplay:10.37,2013-08-28 00:07:00,
2013-08-27 20:12:00,77.0,73.8,30.03,West,270,0.0,0.0,90,0.00,CLR,,0.00,WeatherDisplay:10.37,2013-08-28 00:12:00,
2013-08-27 20:17:00,76.8,74.0,30.03,WSW,248,0.0,0.0,91,0.00,CLR,,0.00,WeatherDisplay:10.37,2013-08-28 00:17:00,
2013-08-27 20:22:00,76.6,73.8,30.03,WSW,248,1.2,1.2,91,0.00,CLR,,0.00,WeatherDisplay:10.37,2013-08-28 00:22:00,
2013-08-27 20:27:00,76.6,73.8,30.03,WSW,248,0.0,1.2,91,0.00,CLR,,0.00,WeatherDisplay:10.37,2013-08-28 00:27:00,
2013-08-27 20:32:00,76.5,74.0,30.03,WSW,248,0.0,0.0,92,0.00,CLR,,0.00,WeatherDisplay:10.37,2013-08-28 00:32:00,
2013-08-27 20:37:00,76.1,73.6,30.03,West,270,0.0,0.0,92,0.00,CLR,,0.00,WeatherDisplay:10.37,2013-08-28 00:37:00,
2013-08-27 20:42:00,75.7,73.2,30.03,West,270,0.0,0.0,92,0.00,CLR,,0.00,WeatherDisplay:10.37,2013-08-28 00:42:00,
2013-08-27 20:47:00,75.6,73.4,30.03,West,270,0.0,0.0,93,0.00,CLR,,0.00,WeatherDisplay:10.37,2013-08-28 00:47:00,
2013-08-27 20:52:00,75.4,73.2,30.03,West,270,0.0,0.0,93,0.00,CLR,,0.00,WeatherDisplay:10.37,2013-08-28 00:52:00,
2013-08-27 20:57:00,75.2,73.0,30.06,West,270,0.0,0.0,93,0.00,CLR,,0.00,WeatherDisplay:10.37,2013-08-28 00:57:00,
2013-08-27 21:02:00,75.0,73.2,30.06,South,180,0.0,0.0,94,0.00,CLR,,0.00,WeatherDisplay:10.37,2013-08-28 01:02:00,
2013-08-27 21:07:00,75.0,73.2,30.06,South,180,0.0,0.0,94,0.00,CLR,,0.00,WeatherDisplay:10.37,2013-08-28 01:07:00,
2013-08-27 21:12:00,75.0,73.2,30.03,South,180,0.0,0.0,94,0.00,CLR,,0.00,WeatherDisplay:10.37,2013-08-28 01:12:00,
2013-08-27 21:17:00,74.8,73.0,30.03,South,180,0.0,0.0,94,0.00,CLR,,0.00,WeatherDisplay:10.37,2013-08-28 01:17:00,
2013-08-27 21:23:00,74.7,72.8,30.03,West,270,0.0,0.0,94,0.00,CLR,,0.00,WeatherDisplay:10.37,2013-08-28 01:23:00,
2013-08-27 21:28:00,74.5,72.6,30.06,West,270,0.0,0.0,94,0.00,CLR,,0.00,WeatherDisplay:10.37,2013-08-28 01:28:00,
2013-08-27 21:33:00,74.3,72.5,30.06,South,180,0.0,0.0,94,0.00,CLR,,0.00,WeatherDisplay:10.37,2013-08-28 01:33:00,
2013-08-27 21:38:00,74.3,72.8,30.06,South,180,0.0,0.0,95,0.00,CLR,,0.00,WeatherDisplay:10.37,2013-08-28 01:38:00,
2013-08-27 21:43:00,74.1,72.6,30.03,South,180,0.0,0.0,95,0.00,CLR,,0.00,WeatherDisplay:10.37,2013-08-28 01:43:00,
2013-08-27 21:48:00,73.9,72.4,30.03,South,180,0.0,0.0,95,0.00,CLR,,0.00,WeatherDisplay:10.37,2013-08-28 01:48:00,
2013-08-27 21:53:00,73.8,72.2,30.03,SW,225,0.0,0.0,95,0.00,CLR,,0.00,WeatherDisplay:10.37,2013-08-28 01:53:00,
2013-08-27 21:58:00,73.8,72.2,30.06,West,270,0.0,0.0,95,0.00,CLR,,0.00,WeatherDisplay:10.37,2013-08-28 01:58:00,
2013-08-27 22:03:00,73.6,72.1,30.06,West,270,0.0,0.0,95,0.00,CLR,,0.00,WeatherDisplay:10.37,2013-08-28 02:03:00,
2013-08-27 22:08:00,73.4,71.9,30.06,West,270,0.0,0.0,95,0.00,CLR,,0.00,WeatherDisplay:10.37,2013-08-28 02:08:00,
2013-08-27 22:13:00,73.4,72.2,30.09,West,270,0.0,0.0,96,0.00,CLR,,0.00,WeatherDisplay:10.37,2013-08-28 02:13:00,
2013-08-27 22:18:00,73.2,72.0,30.09,West,270,0.0,0.0,96,0.00,CLR,,0.00,WeatherDisplay:10.37,2013-08-28 02:18:00,
2013-08-27 22:23:00,73.2,72.0,30.09,West,270,0.0,0.0,96,0.00,CLR,,0.00,WeatherDisplay:10.37,2013-08-28 02:23:00,
2013-08-27 22:28:00,73.0,71.8,30.06,West,270,0.0,0.0,96,0.00,CLR,,0.00,WeatherDisplay:10.37,2013-08-28 02:28:00,
2013-08-27 22:33:00,73.0,72.1,30.06,West,270,0.0,0.0,97,0.00,CLR,,0.00,WeatherDisplay:10.37,2013-08-28 02:33:00,
2013-08-27 22:38:00,72.9,72.0,30.06,West,270,0.0,0.0,97,0.00,CLR,,0.00,WeatherDisplay:10.37,2013-08-28 02:38:00,
2013-08-27 22:43:00,72.7,71.8,30.06,West,270,0.0,0.0,97,0.00,CLR,,0.00,WeatherDisplay:10.37,2013-08-28 02:43:00,
2013-08-27 22:48:00,72.7,71.8,30.06,West,270,0.0,0.0,97,0.00,CLR,,0.00,WeatherDisplay:10.37,2013-08-28 02:48:00,
2013-08-27 22:54:00,72.5,71.6,30.06,West,270,0.0,0.0,97,0.00,CLR,,0.00,WeatherDisplay:10.37,2013-08-28 02:54:00,
2013-08-27 22:59:00,72.3,71.4,30.09,West,270,0.0,0.0,97,0.00,CLR,,0.00,WeatherDisplay:10.37,2013-08-28 02:59:00,
2013-08-27 23:04:00,72.3,71.4,30.09,West,270,0.0,0.0,97,0.00,CLR,,0.00,WeatherDisplay:10.37,2013-08-28 03:04:00,
2013-08-27 23:09:00,72.1,71.2,30.09,West,270,0.0,0.0,97,0.00,CLR,,0.00,WeatherDisplay:10.37,2013-08-28 03:09:00,
2013-08-27 23:14:00,72.1,71.2,30.06,West,270,0.0,0.0,97,0.00,CLR,,0.00,WeatherDisplay:10.37,2013-08-28 03:14:00,
2013-08-27 23:19:00,72.1,71.2,30.06,West,270,0.0,0.0,97,0.00,CLR,,0.00,WeatherDisplay:10.37,2013-08-28 03:19:00,
2013-08-27 23:24:00,72.0,71.1,30.09,West,270,0.0,0.0,97,0.00,CLR,,0.00,WeatherDisplay:10.37,2013-08-28 03:24:00,
2013-08-27 23:29:00,72.0,71.1,30.09,West,270,0.0,0.0,97,0.00,CLR,,0.00,WeatherDisplay:10.37,2013-08-28 03:29:00,
2013-08-27 23:34:00,71.8,70.9,30.09,West,270,0.0,0.0,97,0.00,CLR,,0.00,WeatherDisplay:10.37,2013-08-28 03:34:00,
2013-08-27 23:39:00,71.8,70.9,30.06,West,270,0.0,0.0,97,0.00,CLR,,0.00,WeatherDisplay:10.37,2013-08-28 03:39:00,
2013-08-27 23:44:00,71.8,70.9,30.06,West,270,0.0,0.0,97,0.00,CLR,,0.00,WeatherDisplay:10.37,2013-08-28 03:44:00,
2013-08-27 23:49:00,71.6,70.7,30.06,West,270,0.0,0.0,97,0.00,CLR,,0.00,WeatherDisplay:10.37,2013-08-28 03:49:00,
2013-08-27 23:54:00,71.6,70.7,30.09,West,270,0.0,0.0,97,0.00,CLR,,0.00,WeatherDisplay:10.37,2013-08-28 03:54:00,
2013-08-27 23:59:00,71.6,70.7,30.09,West,270,0.0,0.0,97,0.00,CLR,,0.00,WeatherDisplay:10.37,2013-08-28 03:59:00,